Terminal Aerodrome Forecast
Issued by NWS Austin/San Antonio, TX

Current Version | Previous Version | Text Only | Print | Product List | Glossary Off
Versions: 1 2 3 4 5 6 7 8 9 10 11 12 13

000
FTUS44 KEWX 022326
TAFAUS
TAF
KAUS 022326Z 0300/0406 09005KT P6SM FEW080
     FM030200 VRB03KT P6SM FEW250
     FM031700 13010KT P6SM FEW060=

USA.gov is the U.S. government's official web portal to all federal, state and local government web resources and services.